Time;durP1;ratioP1;P1;durP2;ratioP2;P2;SDS_P1;SDS_P2;PMS_P1;PMS_P2;Temp;Humidity;BMP_temperature;BMP_pressure;BME280_temperature;BME280_humidity;BME280_pressure;Samples;Min_cycle;Max_cycle;Signal;HPM_P1;HPM_P2
2022/03/27 00:01:20;;;;;;;9.25;7.32;;;6.70;99.90;;;;;;5001732;28;20181;-69
2022/03/27 00:03:46;;;;;;;8.77;6.43;;;6.70;99.90;;;;;;4997158;28;20501;-69
2022/03/27 00:06:11;;;;;;;9.23;7.43;;;6.60;99.90;;;;;;4997450;28;20042;-69
2022/03/27 00:08:37;;;;;;;9.10;7.53;;;6.60;99.90;;;;;;4997801;28;20041;-69
2022/03/27 00:13:47;;;;;;;9.40;7.90;;;6.50;99.90;;;;;;5037887;28;20121;-69
2022/03/27 00:16:13;;;;;;;9.68;7.45;;;6.50;99.90;;;;;;4999314;28;20429;-69
2022/03/27 00:18:41;;;;;;;9.20;7.70;;;6.50;99.90;;;;;;5001089;28;20490;-69
2022/03/27 00:21:07;;;;;;;9.75;7.47;;;6.50;99.90;;;;;;4999983;28;20370;-69
2022/03/27 00:23:33;;;;;;;9.43;7.47;;;6.50;99.90;;;;;;4984956;28;20045;-69
2022/03/27 00:25:59;;;;;;;11.07;8.25;;;6.50;99.90;;;;;;5036367;28;20121;-69
2022/03/27 00:28:32;;;;;;;9.93;7.82;;;6.50;99.90;;;;;;4986058;28;20050;-69
2022/03/27 00:31:04;;;;;;;9.68;7.55;;;6.60;99.90;;;;;;4985173;28;20497;-69
2022/03/27 00:33:30;;;;;;;10.48;8.32;;;6.60;99.90;;;;;;5030632;28;20116;-69
2022/03/27 00:35:57;;;;;;;10.05;7.88;;;6.60;99.90;;;;;;5004995;28;20052;-69
2022/03/27 00:38:23;;;;;;;11.88;8.98;;;6.70;99.90;;;;;;5005614;28;20524;-69
2022/03/27 00:40:52;;;;;;;13.27;10.73;;;6.70;99.90;;;;;;5003262;28;20035;-69
2022/03/27 00:43:20;;;;;;;13.70;10.05;;;6.70;99.90;;;;;;5035535;28;20046;-69
2022/03/27 00:45:46;;;;;;;12.57;9.60;;;6.70;99.90;;;;;;5000784;28;20153;-69
2022/03/27 00:48:18;;;;;;;10.52;8.38;;;6.70;99.90;;;;;;4996883;28;20042;-69
2022/03/27 00:50:45;;;;;;;11.35;8.85;;;6.70;99.90;;;;;;4999114;28;20122;-69
2022/03/27 00:53:11;;;;;;;13.50;10.95;;;6.70;99.90;;;;;;4994469;28;20050;-69
2022/03/27 00:55:37;;;;;;;13.88;12.40;;;6.70;99.90;;;;;;4997321;28;20037;-69
2022/03/27 00:58:03;;;;;;;13.25;11.85;;;6.70;99.90;;;;;;5029406;28;20058;-69
2022/03/27 01:00:38;;;;;;;15.82;12.30;;;6.70;99.90;;;;;;5032499;28;20046;-69
2022/03/27 01:03:14;;;;;;;;;;;6.60;99.90;;;;;;5035530;28;20045;-69
2022/03/27 01:05:44;;;;;;;15.73;13.95;;;6.60;99.90;;;;;;5038644;28;19933;-69
2022/03/27 01:08:12;;;;;;;14.93;12.98;;;6.50;99.90;;;;;;5000938;28;20046;-69
2022/03/27 01:10:38;;;;;;;14.38;12.30;;;6.60;99.90;;;;;;5038674;28;20034;-69
2022/03/27 01:13:07;;;;;;;18.02;12.77;;;6.60;99.90;;;;;;5035202;28;20450;-69
2022/03/27 01:15:53;;;;;;;15.75;12.90;;;6.70;99.90;;;;;;5001195;28;20054;-69
2022/03/27 01:18:19;;;;;;;17.08;14.30;;;6.70;99.90;;;;;;5015204;28;20058;-69
2022/03/27 01:20:45;;;;;;;18.40;14.73;;;6.70;99.90;;;;;;5000577;28;20052;-69
2022/03/27 01:23:13;;;;;;;18.20;15.40;;;6.60;99.90;;;;;;5017018;28;20120;-69
2022/03/27 01:25:41;;;;;;;19.83;16.00;;;6.60;99.90;;;;;;4999495;28;21036;-69
2022/03/27 01:28:09;;;;;;;18.40;15.55;;;6.60;99.90;;;;;;5032681;28;20038;-69
2022/03/27 01:30:36;;;;;;;24.85;17.77;;;6.60;99.90;;;;;;4999387;28;20039;-69
2022/03/27 01:33:02;;;;;;;18.55;16.50;;;6.60;99.90;;;;;;5031065;28;20048;-69
2022/03/27 01:35:28;;;;;;;21.02;16.83;;;6.60;99.90;;;;;;4996578;28;20034;-69
2022/03/27 01:37:55;;;;;;;19.70;16.15;;;6.60;99.90;;;;;;4998054;28;20490;-69
2022/03/27 01:40:21;;;;;;;19.02;15.18;;;6.60;99.90;;;;;;5027028;28;20046;-69
2022/03/27 01:42:46;;;;;;;18.27;15.43;;;6.60;99.90;;;;;;4996769;28;20034;-69
2022/03/27 01:45:13;;;;;;;20.60;17.05;;;6.50;99.90;;;;;;4999215;28;20046;-69
2022/03/27 01:47:39;;;;;;;18.02;15.90;;;6.60;99.90;;;;;;5014795;28;20041;-69
2022/03/27 01:50:06;;;;;;;19.67;16.33;;;6.50;99.90;;;;;;5000354;28;20048;-69
2022/03/27 01:52:33;;;;;;;21.77;15.82;;;6.40;99.90;;;;;;5018236;28;20108;-69
2022/03/27 01:54:59;;;;;;;20.55;16.20;;;6.40;99.90;;;;;;4993153;28;20058;-69
2022/03/27 01:57:24;;;;;;;17.77;15.52;;;6.30;99.90;;;;;;4999183;28;20493;-69
2022/03/27 01:59:51;;;;;;;20.15;15.15;;;6.30;99.90;;;;;;4995858;28;20046;-69
2022/03/27 02:02:23;;;;;;;19.17;15.70;;;6.30;99.90;;;;;;5000855;28;20081;-69
2022/03/27 02:04:53;;;;;;;18.80;15.18;;;6.20;99.90;;;;;;5001227;28;20565;-69
2022/03/27 02:07:22;;;;;;;18.38;14.60;;;6.20;99.90;;;;;;5030474;28;20171;-69
2022/03/27 02:09:51;;;;;;;20.52;16.30;;;6.10;99.90;;;;;;4998743;28;20033;-69
2022/03/27 02:12:17;;;;;;;21.10;15.20;;;6.10;99.90;;;;;;4998607;28;20038;-69
2022/03/27 02:14:43;;;;;;;16.75;13.48;;;6.10;99.90;;;;;;5002540;28;20060;-69
2022/03/27 02:17:10;;;;;;;12.07;10.77;;;6.00;99.90;;;;;;5027209;28;20046;-69
2022/03/27 02:19:36;;;;;;;16.58;11.88;;;6.00;99.90;;;;;;5036183;28;20050;-69
2022/03/27 02:22:02;;;;;;;16.33;11.90;;;6.00;99.90;;;;;;4999237;28;20049;-69
2022/03/27 02:24:28;;;;;;;12.05;10.77;;;5.90;99.90;;;;;;5038625;28;20050;-69
2022/03/27 02:26:54;;;;;;;16.02;9.88;;;5.90;99.90;;;;;;4998998;28;20478;-69
2022/03/27 02:29:20;;;;;;;11.45;9.60;;;5.90;99.90;;;;;;5002250;28;20088;-69
2022/03/27 02:31:46;;;;;;;12.00;8.85;;;5.90;99.90;;;;;;4994417;28;20042;-69
2022/03/27 02:34:12;;;;;;;12.82;9.43;;;5.90;99.90;;;;;;5002444;28;20065;-69
2022/03/27 02:36:37;;;;;;;12.32;8.77;;;5.90;99.90;;;;;;4998603;28;20034;-69
2022/03/27 02:39:04;;;;;;;11.80;9.60;;;5.90;99.90;;;;;;5002463;28;20679;-69
2022/03/27 02:41:29;;;;;;;11.40;8.85;;;6.00;99.90;;;;;;4996333;28;20042;-69
2022/03/27 02:43:55;;;;;;;14.52;10.23;;;6.00;99.90;;;;;;4998255;28;20418;-69
2022/03/27 02:46:21;;;;;;;13.63;11.35;;;6.00;99.90;;;;;;4992752;28;20498;-69
2022/03/27 02:48:46;;;;;;;18.48;11.25;;;6.00;99.90;;;;;;5043145;28;20576;-69
2022/03/27 02:51:12;;;;;;;17.25;10.98;;;6.00;99.90;;;;;;5037360;28;20050;-69
2022/03/27 02:53:38;;;;;;;17.33;11.73;;;6.00;99.90;;;;;;5021622;28;20046;-69
2022/03/27 02:56:05;;;;;;;14.30;10.30;;;6.00;99.90;;;;;;5007059;28;20619;-69
2022/03/27 02:58:31;;;;;;;15.75;10.57;;;5.90;99.90;;;;;;5016484;28;20394;-69
2022/03/27 03:00:57;;;;;;;16.35;10.45;;;5.90;99.90;;;;;;5017302;28;20073;-69
2022/03/27 03:03:23;;;;;;;17.85;11.93;;;5.90;99.90;;;;;;5001766;28;20069;-69
2022/03/27 03:05:49;;;;;;;16.08;11.02;;;5.90;99.90;;;;;;5009190;28;20038;-69
2022/03/27 03:08:18;;;;;;;15.85;10.75;;;5.90;99.90;;;;;;5003592;28;20042;-69
2022/03/27 03:10:44;;;;;;;17.35;11.70;;;5.90;99.90;;;;;;5004345;28;20029;-68
2022/03/27 03:13:11;;;;;;;15.15;10.07;;;5.90;99.90;;;;;;5005236;28;20042;-68
2022/03/27 03:15:37;;;;;;;19.45;10.35;;;5.90;99.90;;;;;;5037536;28;20494;-68
2022/03/27 03:18:08;;;;;;;20.38;11.13;;;5.90;99.90;;;;;;5000073;28;20125;-68
2022/03/27 03:20:35;;;;;;;20.85;11.55;;;5.90;99.90;;;;;;5037426;28;20479;-68
2022/03/27 03:23:00;;;;;;;20.27;11.85;;;5.90;99.90;;;;;;4998495;28;20099;-68
2022/03/27 03:25:26;;;;;;;21.20;11.05;;;5.90;99.90;;;;;;4999932;28;20038;-68
2022/03/27 03:27:52;;;;;;;19.20;11.88;;;5.90;99.90;;;;;;5002515;28;20042;-69
2022/03/27 03:30:18;;;;;;;21.67;11.98;;;5.90;99.90;;;;;;5001523;28;20057;-69
2022/03/27 03:32:44;;;;;;;20.77;12.25;;;5.90;99.90;;;;;;5004410;28;20040;-69
2022/03/27 03:35:11;;;;;;;19.48;11.85;;;6.00;99.90;;;;;;5029304;28;20141;-68
2022/03/27 03:37:37;;;;;;;23.75;12.25;;;6.00;99.90;;;;;;5029408;28;20150;-69
2022/03/27 03:40:08;;;;;;;22.15;13.82;;;6.00;99.90;;;;;;5028143;28;20121;-68
2022/03/27 03:42:35;;;;;;;18.63;13.00;;;5.90;99.90;;;;;;5032797;28;20049;-68
2022/03/27 03:45:01;;;;;;;22.63;13.35;;;6.00;99.90;;;;;;4999810;28;20037;-69
2022/03/27 03:47:27;;;;;;;23.10;13.20;;;6.00;99.90;;;;;;5033352;28;20042;-68
2022/03/27 03:49:53;;;;;;;22.38;13.55;;;6.00;99.90;;;;;;5030932;28;20045;-68
2022/03/27 03:52:18;;;;;;;22.65;12.70;;;6.00;99.90;;;;;;5003154;28;20033;-68
2022/03/27 03:54:44;;;;;;;23.75;13.23;;;6.00;99.90;;;;;;5001764;28;20053;-68
2022/03/27 03:57:10;;;;;;;25.40;12.48;;;6.00;99.90;;;;;;5003002;28;20078;-69
2022/03/27 03:59:36;;;;;;;22.67;13.77;;;6.00;99.90;;;;;;5002724;28;20057;-69
2022/03/27 04:02:07;;;;;;;27.65;14.23;;;6.00;99.90;;;;;;5000581;28;20414;-69
2022/03/27 04:04:36;;;;;;;20.00;12.05;;;6.00;99.90;;;;;;5036370;28;20039;-69
2022/03/27 04:07:06;;;;;;;23.88;12.70;;;5.90;99.90;;;;;;5036240;28;20041;-69
2022/03/27 04:09:32;;;;;;;19.95;11.82;;;6.00;99.90;;;;;;5037173;28;20053;-69
2022/03/27 04:11:58;;;;;;;22.60;13.60;;;5.90;99.90;;;;;;4998788;28;20042;-69
2022/03/27 04:14:23;;;;;;;26.35;13.18;;;5.90;99.90;;;;;;5036887;28;20041;-69
2022/03/27 04:16:49;;;;;;;22.73;10.70;;;5.90;99.90;;;;;;4986903;28;20075;-69
2022/03/27 04:19:15;;;;;;;18.52;11.20;;;5.90;99.90;;;;;;5034712;28;20038;-69
2022/03/27 04:21:42;;;;;;;25.27;11.65;;;5.90;99.90;;;;;;5001276;28;20397;-69
2022/03/27 04:24:09;;;;;;;18.88;11.23;;;5.90;99.90;;;;;;5035940;28;20188;-69
2022/03/27 04:26:35;;;;;;;22.15;12.13;;;5.90;99.90;;;;;;5001637;28;20041;-69
2022/03/27 04:29:02;;;;;;;26.98;12.38;;;5.90;99.90;;;;;;5005881;28;20069;-69
2022/03/27 04:31:29;;;;;;;20.17;10.48;;;5.80;99.90;;;;;;5003109;28;20041;-69
2022/03/27 04:33:55;;;;;;;20.83;10.93;;;5.80;99.90;;;;;;4984262;28;20046;-69
2022/03/27 04:36:21;;;;;;;24.20;11.07;;;5.80;99.90;;;;;;4998081;28;20042;-69
2022/03/27 04:38:47;;;;;;;23.17;10.82;;;5.80;99.90;;;;;;5033971;28;20064;-69
2022/03/27 04:41:12;;;;;;;24.02;10.30;;;5.80;99.90;;;;;;5027782;28;20054;-69
2022/03/27 04:43:38;;;;;;;27.27;11.15;;;5.80;99.90;;;;;;5003933;28;20113;-69
2022/03/27 04:46:04;;;;;;;18.77;8.93;;;5.80;99.90;;;;;;4998996;28;20049;-69
2022/03/27 04:48:30;;;;;;;21.02;9.68;;;5.80;99.90;;;;;;5001684;28;20123;-69
2022/03/27 04:50:56;;;;;;;22.77;9.57;;;5.80;99.90;;;;;;5002714;28;20042;-69
2022/03/27 04:53:21;;;;;;;21.90;10.15;;;5.80;99.90;;;;;;5000019;28;20109;-69
2022/03/27 04:55:47;;;;;;;24.50;10.13;;;5.80;99.90;;;;;;5034778;28;20038;-68
2022/03/27 04:58:13;;;;;;;27.13;9.70;;;5.80;99.90;;;;;;4999016;28;20124;-68
2022/03/27 05:00:38;;;;;;;23.98;11.00;;;5.80;99.90;;;;;;5034854;28;20917;-69
2022/03/27 05:03:05;;;;;;;25.48;10.13;;;5.90;99.90;;;;;;5029468;28;20341;-69
2022/03/27 05:05:31;;;;;;;18.45;9.70;;;5.90;99.90;;;;;;5002467;28;20042;-69
2022/03/27 05:07:58;;;;;;;27.92;11.20;;;5.90;99.90;;;;;;5028912;28;20037;-68
2022/03/27 05:10:24;;;;;;;27.45;10.63;;;6.00;99.90;;;;;;4998800;28;20278;-68
2022/03/27 05:12:50;;;;;;;18.02;10.30;;;6.00;99.90;;;;;;4994704;28;20077;-69
2022/03/27 05:15:16;;;;;;;20.95;11.32;;;5.90;99.90;;;;;;5029174;28;20070;-68
2022/03/27 05:17:55;;;;;;;22.10;11.00;;;6.00;99.90;;;;;;4994013;28;20117;-68
2022/03/27 05:20:21;;;;;;;25.13;10.88;;;6.00;99.90;;;;;;4997566;28;20792;-68
2022/03/27 05:22:47;;;;;;;25.75;11.82;;;6.00;99.90;;;;;;5032248;28;20477;-68
2022/03/27 05:25:13;;;;;;;153.55;108.97;;;6.00;99.90;;;;;;4996923;28;20038;-68
2022/03/27 05:27:46;;;;;;;26.75;12.23;;;6.10;99.90;;;;;;5002892;28;20034;-68
2022/03/27 05:30:15;;;;;;;28.45;11.57;;;6.10;99.90;;;;;;5004847;28;20052;-68
2022/03/27 05:32:41;;;;;;;27.15;12.15;;;6.10;99.90;;;;;;4996569;28;20084;-68
2022/03/27 05:35:07;;;;;;;31.17;12.45;;;6.10;99.90;;;;;;4997480;28;20505;-68
2022/03/27 05:37:41;;;;;;;25.73;11.95;;;6.10;99.90;;;;;;5000266;28;20173;-68
2022/03/27 05:40:09;;;;;;;27.40;11.57;;;6.10;99.90;;;;;;5032611;28;20414;-68
2022/03/27 05:42:35;;;;;;;32.38;12.20;;;6.20;99.90;;;;;;5032564;28;20130;-68
2022/03/27 05:45:02;;;;;;;31.10;12.02;;;6.20;99.90;;;;;;5033018;28;20034;-68
2022/03/27 05:47:28;;;;;;;30.30;13.23;;;6.20;99.90;;;;;;5000922;28;20045;-68
2022/03/27 05:49:54;;;;;;;40.95;12.88;;;6.20;99.90;;;;;;5031314;28;20076;-69
2022/03/27 05:52:21;;;;;;;38.22;15.32;;;6.20;99.90;;;;;;5003914;28;20049;-68
2022/03/27 05:54:47;;;;;;;35.92;14.40;;;6.20;99.90;;;;;;5028870;28;20046;-68
2022/03/27 05:57:14;;;;;;;45.35;15.95;;;6.20;99.90;;;;;;5003925;28;20056;-69
2022/03/27 05:59:40;;;;;;;40.45;15.90;;;6.10;99.90;;;;;;5037218;28;20042;-69
2022/03/27 06:02:05;;;;;;;33.50;15.98;;;6.20;99.90;;;;;;5004552;28;20073;-69
2022/03/27 06:04:31;;;;;;;39.88;15.40;;;6.10;99.90;;;;;;5028251;28;20085;-69
2022/03/27 06:06:57;;;;;;;39.67;15.10;;;6.20;99.90;;;;;;5003798;28;20038;-69
2022/03/27 06:09:23;;;;;;;33.95;15.07;;;6.20;99.90;;;;;;5025654;28;20077;-69
2022/03/27 06:11:49;;;;;;;35.05;15.55;;;6.20;99.90;;;;;;4998008;28;20136;-69
2022/03/27 06:14:14;;;;;;;39.80;15.93;;;6.30;99.90;;;;;;4992181;28;20235;-69
2022/03/27 06:16:40;;;;;;;42.72;15.63;;;6.30;99.90;;;;;;4996375;28;20048;-69
2022/03/27 06:19:06;;;;;;;34.78;13.38;;;6.30;99.90;;;;;;4976302;28;20086;-69
2022/03/27 06:21:32;;;;;;;37.47;13.95;;;6.30;99.90;;;;;;4995450;28;20029;-69
2022/03/27 06:23:58;;;;;;;32.17;14.43;;;6.40;99.90;;;;;;5003582;28;20041;-69
2022/03/27 06:26:24;;;;;;;38.65;13.75;;;6.40;99.90;;;;;;5001502;28;20100;-69
2022/03/27 06:28:49;;;;;;;38.85;14.52;;;6.40;99.90;;;;;;5008572;28;20498;-69
2022/03/27 06:31:15;;;;;;;36.33;13.85;;;6.50;99.90;;;;;;5033343;28;20041;-69
2022/03/27 06:33:41;;;;;;;36.40;12.70;;;6.50;99.90;;;;;;5038098;28;20038;-69
2022/03/27 06:36:06;;;;;;;42.13;13.77;;;6.60;99.90;;;;;;5000287;28;20056;-69
2022/03/27 06:38:32;;;;;;;32.95;14.20;;;6.60;99.90;;;;;;5036193;28;20049;-69
2022/03/27 06:40:58;;;;;;;37.17;12.35;;;6.70;99.90;;;;;;5002542;28;20124;-69
2022/03/27 06:43:23;;;;;;;39.35;12.38;;;6.70;99.90;;;;;;5005988;28;20093;-69
2022/03/27 06:45:50;;;;;;;38.40;11.70;;;6.80;99.90;;;;;;5034263;28;20073;-69
2022/03/27 06:48:16;;;;;;;38.80;11.63;;;6.80;99.90;;;;;;5005093;28;20560;-69
2022/03/27 06:50:44;;;;;;;37.58;11.75;;;6.70;99.90;;;;;;5034029;28;20045;-69
2022/03/27 06:53:10;;;;;;;36.85;11.80;;;6.70;99.90;;;;;;5004142;28;20600;-69
2022/03/27 06:55:37;;;;;;;34.70;11.57;;;6.70;99.90;;;;;;5000166;28;20049;-69
2022/03/27 06:58:03;;;;;;;37.47;11.60;;;6.80;99.90;;;;;;5031901;28;20125;-69
2022/03/27 07:03:13;;;;;;;33.67;10.67;;;6.70;99.90;;;;;;5008660;28;20382;-69
2022/03/27 07:05:41;;;;;;;36.55;10.55;;;6.80;99.90;;;;;;4999457;28;20049;-69
2022/03/27 07:08:12;;;;;;;35.58;10.77;;;6.80;99.90;;;;;;5012704;28;20048;-69
2022/03/27 07:10:38;;;;;;;35.17;10.93;;;6.80;99.90;;;;;;5001058;28;20263;-69
2022/03/27 07:13:10;;;;;;;36.40;10.48;;;6.80;99.90;;;;;;5044180;28;20628;-69
2022/03/27 07:15:37;;;;;;;45.83;11.43;;;6.90;99.90;;;;;;5000732;28;20035;-69
2022/03/27 07:18:03;;;;;;;40.50;11.15;;;6.90;99.90;;;;;;5031404;28;20502;-69
2022/03/27 07:20:31;;;;;;;39.47;11.30;;;6.80;99.90;;;;;;5004806;28;20466;-69
2022/03/27 07:23:03;;;;;;;37.63;11.65;;;6.80;99.90;;;;;;4999225;28;20085;-69
2022/03/27 07:25:32;;;;;;;42.13;10.55;;;6.80;99.90;;;;;;5038406;28;20038;-69
2022/03/27 07:27:58;;;;;;;37.28;9.57;;;6.90;99.90;;;;;;5032346;28;20054;-69
2022/03/27 07:30:24;;;;;;;36.40;9.32;;;7.00;99.90;;;;;;5003919;28;20054;-69
2022/03/27 07:32:52;;;;;;;39.85;9.13;;;7.10;99.90;;;;;;5001807;28;20084;-69
2022/03/27 07:35:18;;;;;;;42.50;10.90;;;7.10;99.90;;;;;;5004510;28;20049;-69
2022/03/27 07:37:44;;;;;;;37.30;11.05;;;7.10;99.90;;;;;;5000710;28;20042;-69
2022/03/27 07:40:12;;;;;;;35.28;11.13;;;7.00;99.90;;;;;;5002751;28;20049;-69
2022/03/27 07:42:39;;;;;;;38.70;10.77;;;7.00;99.90;;;;;;5033559;28;20480;-69
2022/03/27 07:45:06;;;;;;;38.20;10.70;;;7.00;99.90;;;;;;5001599;28;20077;-69
2022/03/27 07:47:32;;;;;;;35.58;9.70;;;6.90;99.90;;;;;;4998566;28;20074;-69
2022/03/27 07:49:59;;;;;;;39.25;10.38;;;6.90;99.90;;;;;;5002112;28;20425;-69
2022/03/27 07:52:28;;;;;;;32.97;9.43;;;6.90;99.90;;;;;;5033169;28;20191;-69
2022/03/27 07:54:55;;;;;;;28.58;8.15;;;6.90;99.90;;;;;;4999966;28;20043;-69
2022/03/27 07:57:20;;;;;;;37.40;9.38;;;6.90;99.90;;;;;;4999342;28;20042;-69
2022/03/27 07:59:47;;;;;;;32.28;8.50;;;6.90;99.90;;;;;;4997708;28;20394;-69
2022/03/27 08:02:14;;;;;;;26.55;7.47;;;7.00;99.90;;;;;;5000955;28;20505;-69
2022/03/27 08:04:40;;;;;;;37.35;9.63;;;7.10;99.90;;;;;;4995800;28;20038;-69
2022/03/27 08:07:05;;;;;;;37.28;9.20;;;7.10;99.90;;;;;;5035972;28;20453;-69
2022/03/27 08:09:31;;;;;;;32.38;8.20;;;7.10;99.90;;;;;;4999235;28;20052;-69
2022/03/27 08:11:57;;;;;;;30.75;7.70;;;7.20;99.90;;;;;;4998652;28;20164;-69
2022/03/27 08:14:27;;;;;;;38.78;8.98;;;7.20;99.90;;;;;;4995141;28;20046;-68
2022/03/27 08:16:53;;;;;;;38.35;8.13;;;7.30;99.90;;;;;;4999005;28;20050;-68
2022/03/27 08:19:19;;;;;;;32.45;8.43;;;7.50;99.90;;;;;;5002442;28;20045;-69
2022/03/27 08:21:45;;;;;;;35.22;9.15;;;7.70;99.90;;;;;;5002415;28;20643;-68
2022/03/27 08:24:10;;;;;;;31.95;8.60;;;7.80;99.90;;;;;;5000076;28;20454;-69
2022/03/27 08:29:20;;;;;;;29.40;8.17;;;8.00;99.90;;;;;;5031812;28;20477;-69
2022/03/27 08:31:46;;;;;;;31.85;8.15;;;8.00;99.90;;;;;;5002027;28;20034;-69
2022/03/27 08:34:12;;;;;;;29.33;8.10;;;8.20;99.90;;;;;;5002779;28;20050;-69
2022/03/27 08:36:38;;;;;;;32.20;8.10;;;8.60;99.90;;;;;;5005183;28;20038;-69
2022/03/27 08:39:04;;;;;;;37.00;7.90;;;9.00;99.90;;;;;;5002175;28;20054;-69
2022/03/27 08:41:30;;;;;;;34.35;7.80;;;9.20;99.90;;;;;;5005672;28;20060;-69
2022/03/27 08:43:59;;;;;;;32.72;8.05;;;9.50;99.90;;;;;;5017726;28;20085;-69
2022/03/27 08:46:29;;;;;;;31.17;7.63;;;10.00;99.90;;;;;;5003316;28;20053;-69
2022/03/27 08:49:00;;;;;;;32.53;7.55;;;10.90;99.90;;;;;;5000192;28;20050;-69
2022/03/27 08:51:28;;;;;;;28.83;7.82;;;11.80;99.90;;;;;;4998683;28;20046;-69
2022/03/27 08:54:12;;;;;;;29.67;7.20;;;12.20;99.80;;;;;;5000028;28;20398;-69
2022/03/27 08:56:38;;;;;;;29.80;6.63;;;12.80;96.50;;;;;;4999546;28;20046;-70
2022/03/27 08:59:09;;;;;;;24.85;6.80;;;12.80;95.70;;;;;;5014355;28;20112;-69
2022/03/27 09:01:37;;;;;;;28.45;7.07;;;13.00;92.80;;;;;;4999678;28;20046;-69
2022/03/27 09:04:04;;;;;;;29.80;6.72;;;13.40;93.40;;;;;;5002154;28;20112;-68
2022/03/27 09:06:30;;;;;;;23.33;5.85;;;13.70;90.30;;;;;;5001699;28;20069;-68
2022/03/27 09:08:56;;;;;;;23.85;7.32;;;14.10;90.30;;;;;;5040204;28;20108;-68
2022/03/27 09:11:25;;;;;;;25.58;6.57;;;14.20;86.30;;;;;;4995951;28;20046;-69
2022/03/27 09:13:56;;;;;;;24.98;6.65;;;14.70;86.90;;;;;;5004323;28;20094;-69
2022/03/27 09:16:22;;;;;;;29.02;6.65;;;15.30;85.60;;;;;;4998119;28;20057;-69
2022/03/27 09:18:53;;;;;;;23.88;6.50;;;15.60;83.80;;;;;;5003957;28;20045;-69
2022/03/27 09:21:24;;;;;;;26.77;7.05;;;16.10;81.70;;;;;;5003195;28;20034;-70
2022/03/27 09:23:59;;;;;;;25.30;6.45;;;16.50;78.60;;;;;;5002993;28;20502;-69
2022/03/27 09:26:24;;;;;;;;;;;16.30;72.40;;;;;;5000721;28;20045;-70
2022/03/27 09:28:57;;;;;;;26.98;6.82;;;16.30;71.10;;;;;;5035970;28;19918;-70
2022/03/27 09:31:27;;;;;;;28.30;7.00;;;16.20;72.40;;;;;;5000529;28;20417;-69
2022/03/27 09:33:57;;;;;;;29.08;7.03;;;16.10;72.10;;;;;;5033624;28;20092;-69
2022/03/27 09:36:25;;;;;;;26.13;6.82;;;16.50;73.00;;;;;;5033596;28;20501;-70
2022/03/27 09:39:16;;;;;;;25.65;6.85;;;16.70;71.60;;;;;;5005257;28;20046;-70
2022/03/27 09:41:54;;;;;;;23.52;6.50;;;17.00;68.20;;;;;;5003844;28;20038;-70
2022/03/27 09:44:33;;;;;;;22.75;6.35;;;17.40;68.60;;;;;;5003019;28;20080;-67
2022/03/27 09:47:00;;;;;;;26.17;6.35;;;17.20;64.00;;;;;;4993954;28;20062;-69
2022/03/27 09:49:32;;;;;;;21.42;5.47;;;17.40;64.70;;;;;;5000265;28;20053;-69
2022/03/27 09:52:05;;;;;;;25.50;6.75;;;17.70;61.60;;;;;;5004646;28;20073;-69
2022/03/27 09:54:48;;;;;;;25.15;6.80;;;17.80;63.30;;;;;;4997527;28;20073;-70
2022/03/27 09:57:22;;;;;;;24.33;6.00;;;17.90;61.90;;;;;;5005682;28;20449;-70
2022/03/27 09:59:49;;;;;;;20.95;5.60;;;18.10;59.70;;;;;;5002669;28;20135;-70
2022/03/27 10:02:30;;;;;;;20.20;5.68;;;18.30;60.70;;;;;;5002757;28;20052;-70
2022/03/27 10:05:07;;;;;;;24.30;6.40;;;18.20;57.30;;;;;;5001910;28;20528;-68
2022/03/27 10:07:36;;;;;;;22.92;5.65;;;18.00;56.30;;;;;;5000179;28;20129;-69
2022/03/27 10:10:03;;;;;;;26.92;7.00;;;18.20;58.70;;;;;;5002108;28;20517;-69
2022/03/27 10:12:31;;;;;;;21.95;6.38;;;17.70;58.50;;;;;;4999852;28;20045;-69
2022/03/27 10:15:03;;;;;;;19.27;5.72;;;18.10;58.20;;;;;;5015717;28;20058;-70
2022/03/27 10:17:31;;;;;;;25.45;6.63;;;18.30;57.00;;;;;;5000287;28;20084;-70
2022/03/27 10:20:06;;;;;;;24.23;6.15;;;18.50;57.70;;;;;;5002831;28;20140;-70
2022/03/27 10:22:35;;;;;;;20.77;6.32;;;18.60;56.30;;;;;;4999509;28;20399;-70
2022/03/27 10:25:03;;;;;;;23.75;6.47;;;18.20;56.90;;;;;;5002248;28;20129;-70
2022/03/27 10:27:32;;;;;;;22.08;5.80;;;18.10;56.00;;;;;;4994715;28;20030;-70
2022/03/27 10:30:02;;;;;;;23.38;6.13;;;18.10;56.00;;;;;;5021929;28;20065;-68
2022/03/27 10:32:28;;;;;;;22.92;6.13;;;17.90;56.60;;;;;;4997417;28;20046;-68
2022/03/27 10:35:23;;;;;;;19.75;5.90;;;17.90;58.00;;;;;;4997558;28;20049;-69
2022/03/27 10:38:13;;;;;;;17.85;5.72;;;18.00;53.10;;;;;;4994928;28;20107;-70
2022/03/27 10:40:55;;;;;;;19.58;5.55;;;17.90;55.60;;;;;;5024529;28;20542;-70
2022/03/27 10:43:34;;;;;;;23.25;6.45;;;18.30;54.50;;;;;;4996209;28;20065;-70
2022/03/27 10:46:24;;;;;;;21.35;6.55;;;18.70;55.60;;;;;;5023680;28;20094;-70
2022/03/27 10:48:53;;;;;;;19.85;5.80;;;18.90;51.80;;;;;;4994205;28;20045;-69
2022/03/27 10:51:25;;;;;;;17.38;4.68;;;18.80;54.00;;;;;;4997104;28;20037;-69
2022/03/27 10:54:10;;;;;;;19.35;5.72;;;18.80;52.80;;;;;;4997308;28;20057;-69
2022/03/27 10:56:48;;;;;;;19.88;5.00;;;19.00;52.30;;;;;;5001836;28;20096;-69
2022/03/27 10:59:22;;;;;;;20.20;5.68;;;18.70;52.90;;;;;;4997054;28;20061;-69
2022/03/27 11:01:49;;;;;;;;;;;18.70;54.00;;;;;;5004541;28;20042;-69
2022/03/27 11:04:20;;;;;;;22.30;5.75;;;18.80;52.70;;;;;;5001843;28;20374;-69
2022/03/27 11:06:48;;;;;;;18.08;6.03;;;18.90;53.30;;;;;;5002896;28;20129;-70
2022/03/27 11:09:40;;;;;;;19.83;5.55;;;18.60;51.60;;;;;;5003049;28;20037;-70
2022/03/27 11:12:25;;;;;;;23.55;5.80;;;18.10;52.10;;;;;;5005615;28;20046;-70
2022/03/27 11:14:58;;;;;;;19.85;5.55;;;18.20;54.70;;;;;;5034053;28;20157;-70
2022/03/27 11:17:42;;;;;;;18.10;5.68;;;18.70;53.50;;;;;;5002226;28;20137;-70
2022/03/27 11:20:33;;;;;;;18.25;5.43;;;19.00;49.70;;;;;;4999985;28;20039;-70
2022/03/27 11:23:02;;;;;;;18.90;5.47;;;18.80;50.90;;;;;;5003767;28;20100;-70
2022/03/27 11:25:38;;;;;;;21.40;5.68;;;18.60;52.00;;;;;;5033773;28;20410;-70
2022/03/27 11:28:05;;;;;;;19.02;5.72;;;18.90;51.40;;;;;;5003344;28;20042;-70
2022/03/27 11:30:31;;;;;;;20.85;5.65;;;18.90;51.70;;;;;;5003458;28;20457;-70
2022/03/27 11:33:23;;;;;;;20.23;7.68;;;18.90;49.30;;;;;;5002521;28;20533;-70
2022/03/27 11:36:00;;;;;;;21.67;5.70;;;19.00;49.20;;;;;;4997339;28;20049;-70
2022/03/27 11:38:28;;;;;;;18.35;6.18;;;18.80;48.40;;;;;;5003540;28;20050;-69
2022/03/27 11:40:55;;;;;;;17.70;5.60;;;18.80;50.00;;;;;;4999923;28;20431;-70
2022/03/27 11:43:32;;;;;;;20.27;5.88;;;18.90;49.80;;;;;;5005230;28;20081;-70
2022/03/27 11:46:00;;;;;;;22.05;6.38;;;19.10;49.10;;;;;;5001091;28;20050;-70
2022/03/27 11:48:26;;;;;;;20.23;5.90;;;19.30;49.20;;;;;;5006702;28;20125;-69
2022/03/27 11:50:55;;;;;;;20.85;5.72;;;19.70;49.50;;;;;;4999888;28;20474;-70
2022/03/27 11:53:32;;;;;;;14.73;4.80;;;19.80;48.30;;;;;;5008372;28;20040;-70
2022/03/27 11:56:06;;;;;;;16.63;4.95;;;19.80;47.50;;;;;;5001883;28;20066;-70
2022/03/27 11:58:32;;;;;;;21.02;5.63;;;19.90;46.10;;;;;;5006782;28;20463;-71
2022/03/27 12:01:03;;;;;;;18.58;5.07;;;19.80;46.90;;;;;;5000321;28;20052;-70
2022/03/27 12:03:28;;;;;;;17.73;5.22;;;19.50;46.60;;;;;;5005850;28;20277;-70
2022/03/27 12:06:06;;;;;;;17.45;5.18;;;19.20;47.70;;;;;;4999985;28;20043;-70
2022/03/27 12:08:41;;;;;;;16.13;4.63;;;19.40;45.60;;;;;;5000959;28;20066;-70
2022/03/27 12:11:08;;;;;;;13.18;4.35;;;19.30;45.70;;;;;;5000743;28;20493;-72
2022/03/27 12:13:39;;;;;;;15.85;4.47;;;19.10;45.90;;;;;;5002801;28;20041;-69
2022/03/27 12:16:05;;;;;;;17.33;4.57;;;19.20;46.80;;;;;;4996751;28;20557;-69
2022/03/27 12:18:31;;;;;;;16.92;5.03;;;19.70;46.20;;;;;;4998963;28;20422;-70
2022/03/27 12:21:00;;;;;;;15.45;4.60;;;19.90;45.60;;;;;;4999109;28;20072;-70
2022/03/27 12:23:27;;;;;;;20.10;5.75;;;20.00;45.60;;;;;;5006393;28;20461;-70
2022/03/27 12:32:06;;;;;;;16.67;4.53;;;20.90;43.70;;;;;;5040779;28;20085;-69
2022/03/27 12:34:33;;;;;;;15.32;4.50;;;21.00;43.50;;;;;;5028417;28;20046;-70
2022/03/27 12:37:18;;;;;;;16.50;5.18;;;20.90;42.40;;;;;;4999084;28;20050;-70
2022/03/27 12:39:47;;;;;;;20.77;5.07;;;21.20;43.60;;;;;;4998606;28;20117;-70
2022/03/27 12:42:49;;;;;;;15.82;4.45;;;21.50;42.30;;;;;;4996528;28;20042;-70
2022/03/27 12:45:18;;;;;;;18.42;5.05;;;21.00;41.20;;;;;;4985496;28;20077;-70
2022/03/27 12:48:03;;;;;;;19.08;5.00;;;21.00;42.00;;;;;;4997854;28;20548;-70
2022/03/27 12:50:34;;;;;;;19.08;4.93;;;21.00;41.90;;;;;;5003414;28;20037;-70
2022/03/27 12:53:09;;;;;;;15.82;4.85;;;20.40;42.50;;;;;;5033771;28;20129;-69
2022/03/27 12:56:01;;;;;;;16.45;4.68;;;20.50;42.10;;;;;;4999325;28;20085;-70
2022/03/27 12:58:37;;;;;;;19.10;4.57;;;20.70;43.00;;;;;;5000889;28;20521;-70
2022/03/27 13:01:03;;;;;;;17.10;4.55;;;20.70;42.70;;;;;;4999894;28;20048;-70
2022/03/27 13:03:29;;;;;;;15.95;3.80;;;21.00;42.80;;;;;;5035316;28;20070;-70